createdAt,value
2017-07-17T00:01:24.886Z,12.7
2017-07-17T00:03:56.585Z,12.9
2017-07-17T00:06:28.353Z,13.7
2017-07-17T00:09:00.085Z,12.9
2017-07-17T00:11:31.844Z,12.7
2017-07-17T00:14:03.578Z,13.6
2017-07-17T00:16:35.351Z,13.6
2017-07-17T00:19:07.116Z,16.0
2017-07-17T00:21:38.862Z,14.9
2017-07-17T00:24:10.597Z,13.9
2017-07-17T00:26:42.347Z,11.7
2017-07-17T00:29:14.050Z,13.0
2017-07-17T00:31:45.806Z,13.5
2017-07-17T00:34:17.522Z,12.1
2017-07-17T00:36:49.279Z,14.9
2017-07-17T00:39:21.001Z,12.8
2017-07-17T00:41:52.754Z,16.0
2017-07-17T00:44:24.490Z,13.5
2017-07-17T00:46:56.268Z,12.2
2017-07-17T00:49:27.994Z,12.4
2017-07-17T00:51:59.748Z,13.2
2017-07-17T00:54:31.501Z,16.5
2017-07-17T00:57:03.299Z,13.9
2017-07-17T00:59:35.047Z,13.7
2017-07-17T01:02:06.797Z,12.7
2017-07-17T01:04:38.535Z,12.5
2017-07-17T01:07:10.273Z,12.7
2017-07-17T01:09:41.989Z,13.9
2017-07-17T01:12:13.745Z,13.1
2017-07-17T01:14:45.502Z,12.7
2017-07-17T01:17:17.221Z,12.7
2017-07-17T01:19:48.967Z,12.5
2017-07-17T01:22:20.729Z,12.6
2017-07-17T01:24:52.457Z,14.8
2017-07-17T01:27:24.222Z,13.0
2017-07-17T01:29:55.955Z,13.6
2017-07-17T01:32:27.720Z,12.7
2017-07-17T01:34:59.451Z,13.0
2017-07-17T01:37:31.236Z,12.8
2017-07-17T01:40:02.959Z,16.2
2017-07-17T01:42:34.709Z,13.8
2017-07-17T01:45:06.431Z,13.7
2017-07-17T01:47:38.188Z,15.1
2017-07-17T01:50:09.906Z,12.1
2017-07-17T01:52:41.660Z,12.5
2017-07-17T01:55:13.371Z,12.9
2017-07-17T01:57:45.116Z,14.0
2017-07-17T02:00:16.838Z,14.7
2017-07-17T02:02:48.594Z,14.5
2017-07-17T02:05:20.309Z,12.5
2017-07-17T02:07:52.055Z,12.9
2017-07-17T02:10:23.773Z,15.6
2017-07-17T02:12:55.524Z,13.6
2017-07-17T02:15:27.231Z,16.5
2017-07-17T02:17:59.009Z,14.2
2017-07-17T02:20:30.754Z,13.2
2017-07-17T02:23:02.539Z,12.3
2017-07-17T02:25:34.278Z,11.9
2017-07-17T02:28:06.059Z,12.0
2017-07-17T02:30:37.823Z,15.3
2017-07-17T02:33:09.593Z,12.5
2017-07-17T02:35:41.346Z,13.4
2017-07-17T02:38:13.105Z,11.8
2017-07-17T02:40:44.836Z,13.0
2017-07-17T02:43:16.613Z,11.6
2017-07-17T02:45:48.369Z,14.6
2017-07-17T02:48:20.149Z,13.2
2017-07-17T02:50:51.889Z,13.4
2017-07-17T02:53:23.687Z,15.8
2017-07-17T02:55:55.443Z,11.9
2017-07-17T02:58:27.213Z,15.2
2017-07-17T03:00:58.940Z,15.0
2017-07-17T03:03:30.687Z,13.5
2017-07-17T03:06:02.429Z,13.1
2017-07-17T03:08:34.194Z,13.9
2017-07-17T03:11:05.926Z,13.3
2017-07-17T03:13:37.820Z,14.0
2017-07-17T03:16:09.533Z,12.4
2017-07-17T03:18:41.318Z,12.8
2017-07-17T03:21:13.029Z,15.2
2017-07-17T03:23:44.795Z,14.4
2017-07-17T03:26:16.520Z,16.0
2017-07-17T03:28:48.279Z,14.2
2017-07-17T03:31:20.005Z,16.6
2017-07-17T03:33:51.751Z,13.2
2017-07-17T03:36:23.475Z,14.7
2017-07-17T03:38:55.220Z,12.6
2017-07-17T03:41:26.951Z,13.0
2017-07-17T03:43:58.718Z,12.7
2017-07-17T03:46:30.437Z,14.3
2017-07-17T03:49:02.186Z,12.9
2017-07-17T03:51:33.915Z,11.8
2017-07-17T03:54:05.669Z,14.3
2017-07-17T03:56:37.400Z,16.7
2017-07-17T03:59:09.155Z,12.8
2017-07-17T04:01:40.866Z,14.8
2017-07-17T04:04:12.683Z,13.7
2017-07-17T04:06:44.470Z,12.5
2017-07-17T04:09:16.259Z,15.2
2017-07-17T04:11:48.026Z,12.9
2017-07-17T04:14:19.785Z,13.7
2017-07-17T04:16:51.506Z,12.3
2017-07-17T04:19:23.370Z,17.2
2017-07-17T04:21:55.113Z,15.6
2017-07-17T04:24:26.882Z,12.6
2017-07-17T04:27:00.302Z,12.8
2017-07-17T04:29:32.043Z,16.5
2017-07-17T04:32:03.776Z,21.7
2017-07-17T04:34:35.542Z,22.7
2017-07-17T04:37:07.290Z,23.9
2017-07-17T04:39:39.059Z,22.4
2017-07-17T04:42:11.893Z,24.3
2017-07-17T04:44:43.732Z,20.8
2017-07-17T04:47:15.464Z,25.1
2017-07-17T04:49:47.223Z,26.8
2017-07-17T04:52:19.022Z,35.8
2017-07-17T04:54:50.943Z,26.5
2017-07-17T04:57:22.649Z,26.0
2017-07-17T04:59:54.412Z,23.2
2017-07-17T05:02:26.175Z,26.0
2017-07-17T05:04:57.946Z,21.9
2017-07-17T05:07:29.671Z,21.7
2017-07-17T05:10:01.451Z,21.4
2017-07-17T05:12:33.364Z,25.1
2017-07-17T05:15:05.102Z,24.9
2017-07-17T05:17:36.829Z,23.1
2017-07-17T05:20:09.220Z,28.6
2017-07-17T05:22:41.116Z,24.8
2017-07-17T05:25:13.109Z,28.8
2017-07-17T05:27:44.849Z,26.7
2017-07-17T05:30:18.087Z,26.9
2017-07-17T05:32:50.486Z,29.5
2017-07-17T05:35:23.411Z,30.8
2017-07-17T05:37:55.123Z,27.8
2017-07-17T05:40:26.895Z,26.1
2017-07-17T05:42:58.623Z,26.3
2017-07-17T05:45:30.382Z,24.4
2017-07-17T05:48:02.121Z,24.1
2017-07-17T05:50:33.888Z,21.4
2017-07-17T05:53:06.487Z,22.7
2017-07-17T05:55:38.260Z,25.1
2017-07-17T05:58:09.988Z,23.3
2017-07-17T06:00:42.911Z,20.4
2017-07-17T06:03:14.695Z,21.7
2017-07-17T06:05:46.445Z,20.6
2017-07-17T06:08:18.154Z,22.0
2017-07-17T06:10:49.896Z,19.0
2017-07-17T06:13:21.598Z,28.4
2017-07-17T06:15:53.325Z,22.8
2017-07-17T06:18:25.057Z,23.8
2017-07-17T06:20:56.764Z,23.5
2017-07-17T06:23:28.475Z,27.7
2017-07-17T06:26:00.218Z,29.7
2017-07-17T06:28:31.912Z,29.4
2017-07-17T06:31:03.637Z,24.9
2017-07-17T06:33:35.335Z,26.5
2017-07-17T06:36:07.066Z,28.9
2017-07-17T06:38:38.819Z,29.3
2017-07-17T06:41:10.600Z,31.7
2017-07-17T06:43:42.414Z,24.6
2017-07-17T06:46:14.201Z,25.2
2017-07-17T06:48:45.965Z,24.2
2017-07-17T06:51:17.732Z,23.6
2017-07-17T06:53:49.500Z,24.7
2017-07-17T06:56:21.255Z,23.8
2017-07-17T06:58:53.021Z,20.3
2017-07-17T07:01:24.782Z,23.5
2017-07-17T07:03:56.521Z,24.2
2017-07-17T07:06:28.316Z,25.4
2017-07-17T07:09:00.007Z,27.8
2017-07-17T07:11:31.769Z,24.2
2017-07-17T07:14:03.468Z,23.5
2017-07-17T07:16:35.215Z,21.2
2017-07-17T07:19:06.915Z,18.8
2017-07-17T07:21:38.676Z,20.0
2017-07-17T07:24:10.395Z,26.2
2017-07-17T07:26:42.194Z,17.0
2017-07-17T07:29:13.874Z,17.6
2017-07-17T07:31:45.662Z,17.4
2017-07-17T07:34:17.388Z,16.3
2017-07-17T07:36:49.141Z,17.5
2017-07-17T07:39:20.865Z,13.7
2017-07-17T07:41:52.616Z,15.1
2017-07-17T07:44:24.329Z,14.3
2017-07-17T07:46:56.087Z,18.7
2017-07-17T07:49:27.797Z,17.4
2017-07-17T07:51:59.640Z,13.9
2017-07-17T07:54:31.361Z,13.6
2017-07-17T07:57:03.127Z,14.3
2017-07-17T07:59:34.842Z,12.6
2017-07-17T08:02:06.607Z,10.7
2017-07-17T08:04:38.419Z,12.8
2017-07-17T08:07:10.171Z,15.3
2017-07-17T08:09:41.905Z,11.5
2017-07-17T08:12:13.658Z,12.1
2017-07-17T08:14:45.386Z,15.3
2017-07-17T08:17:17.178Z,12.8
2017-07-17T08:19:48.911Z,10.8
2017-07-17T08:22:20.659Z,12.3
2017-07-17T08:24:52.366Z,13.5
2017-07-17T08:27:24.114Z,10.4
2017-07-17T08:29:55.843Z,9.7
2017-07-17T08:32:27.601Z,9.8
2017-07-17T08:34:59.333Z,10.3
2017-07-17T08:37:31.097Z,11.6
2017-07-17T08:40:02.803Z,9.2
2017-07-17T08:42:34.544Z,11.2
2017-07-17T08:45:06.243Z,9.5
2017-07-17T08:47:37.976Z,11.2
2017-07-17T08:50:09.684Z,11.3
2017-07-17T08:52:41.430Z,8.0
2017-07-17T08:55:13.168Z,8.3
2017-07-17T08:57:44.915Z,8.3
2017-07-17T09:00:16.636Z,9.9
2017-07-17T09:02:48.413Z,8.3
2017-07-17T09:05:20.149Z,9.4
2017-07-17T09:07:51.908Z,9.5
2017-07-17T09:10:23.610Z,11.1
2017-07-17T09:12:55.355Z,9.1
2017-07-17T09:15:27.049Z,7.0
2017-07-17T09:17:58.779Z,9.2
2017-07-17T09:20:30.493Z,7.8
2017-07-17T09:23:02.226Z,8.7
2017-07-17T09:25:33.930Z,11.1
2017-07-17T09:28:05.674Z,8.9
2017-07-17T09:30:37.378Z,8.4
2017-07-17T09:33:09.130Z,7.8
2017-07-17T09:35:40.831Z,9.0
2017-07-17T09:38:12.569Z,7.3
2017-07-17T09:40:44.397Z,9.2
2017-07-17T09:43:16.182Z,9.4
2017-07-17T09:45:47.959Z,8.4
2017-07-17T09:48:19.700Z,7.6
2017-07-17T09:50:52.098Z,8.0
2017-07-17T09:53:23.913Z,6.5
2017-07-17T09:55:55.617Z,6.8
2017-07-17T09:58:27.356Z,7.2
2017-07-17T10:00:59.078Z,7.3
2017-07-17T10:03:30.827Z,8.3
2017-07-17T10:06:02.555Z,6.9
2017-07-17T10:08:34.330Z,8.2
2017-07-17T10:11:06.119Z,5.9
2017-07-17T10:13:38.577Z,8.3
2017-07-17T10:16:10.389Z,6.3
2017-07-17T10:18:42.176Z,6.5
2017-07-17T10:21:13.937Z,6.0
2017-07-17T10:23:45.743Z,7.1
2017-07-17T10:26:17.481Z,6.1
2017-07-17T10:28:49.298Z,5.9
2017-07-17T10:31:21.014Z,5.0
2017-07-17T10:33:52.758Z,6.9
2017-07-17T10:36:24.479Z,5.9
2017-07-17T10:38:56.215Z,6.1
2017-07-17T10:41:27.912Z,7.3
2017-07-17T10:43:59.697Z,5.9
2017-07-17T10:46:31.367Z,5.6
2017-07-17T10:49:03.100Z,5.5
2017-07-17T10:51:34.823Z,5.7
2017-07-17T10:54:06.588Z,5.8
2017-07-17T10:56:38.316Z,7.6
2017-07-17T10:59:10.091Z,5.5
2017-07-17T11:01:41.825Z,5.4
2017-07-17T11:04:13.606Z,5.3
2017-07-17T11:06:45.346Z,7.2
2017-07-17T11:09:17.152Z,5.0
2017-07-17T11:11:48.855Z,4.8
2017-07-17T11:14:20.863Z,5.9
2017-07-17T11:16:52.581Z,4.7
2017-07-17T11:19:24.315Z,6.0
2017-07-17T11:21:56.029Z,5.8
2017-07-17T11:24:27.766Z,4.8
2017-07-17T11:26:59.464Z,5.0
2017-07-17T11:29:31.206Z,4.9
2017-07-17T11:32:02.916Z,4.8
2017-07-17T11:34:34.642Z,6.0
2017-07-17T11:37:06.343Z,4.8
2017-07-17T11:39:38.085Z,5.0
2017-07-17T11:42:09.812Z,5.5
2017-07-17T11:44:41.567Z,4.4
2017-07-17T11:56:29.089Z,4.9
2017-07-17T11:59:00.798Z,4.3
2017-07-17T12:01:32.551Z,4.4
2017-07-17T12:04:04.276Z,4.5
2017-07-17T12:06:36.024Z,5.0
2017-07-17T12:09:07.751Z,4.6
2017-07-17T12:11:39.532Z,4.7
2017-07-17T12:14:11.267Z,5.0
2017-07-17T12:16:43.040Z,4.5
2017-07-17T12:19:14.761Z,4.8
2017-07-17T12:21:46.536Z,5.1
2017-07-17T12:24:18.277Z,4.4
2017-07-17T12:26:50.050Z,4.4
2017-07-17T12:29:21.753Z,4.4
2017-07-17T12:31:53.503Z,4.4
2017-07-17T12:34:25.221Z,4.8
2017-07-17T12:36:56.996Z,4.6
2017-07-17T12:39:28.725Z,5.5
2017-07-17T12:42:00.490Z,4.6
2017-07-17T12:44:32.214Z,4.6
2017-07-17T12:47:04.018Z,4.3
2017-07-17T12:49:35.773Z,4.3
2017-07-17T12:52:07.556Z,4.6
2017-07-17T12:54:39.334Z,4.5
2017-07-17T12:57:11.069Z,4.7
2017-07-17T12:59:42.771Z,4.7
2017-07-17T13:02:14.490Z,4.5
2017-07-17T13:04:46.188Z,4.2
2017-07-17T13:07:17.914Z,4.4
2017-07-17T13:09:49.615Z,4.2
2017-07-17T13:12:21.373Z,4.0
2017-07-17T13:14:53.080Z,4.1
2017-07-17T13:17:24.831Z,4.0
2017-07-17T13:19:56.554Z,3.9
2017-07-17T13:22:28.318Z,4.2
2017-07-17T13:25:00.799Z,4.0
2017-07-17T13:27:32.543Z,4.0
2017-07-17T13:30:04.243Z,5.2
2017-07-17T13:32:35.976Z,4.5
2017-07-17T13:35:07.670Z,4.1
2017-07-17T13:37:39.396Z,3.5
2017-07-17T13:40:11.095Z,3.9
2017-07-17T13:42:42.895Z,3.8
2017-07-17T13:45:14.627Z,4.1
2017-07-17T13:47:46.369Z,15.9
2017-07-17T13:50:19.126Z,17.4
2017-07-17T13:52:50.893Z,15.9
2017-07-17T13:55:22.755Z,12.6
2017-07-17T13:57:55.026Z,16.3
2017-07-17T14:00:27.796Z,17.8
2017-07-17T14:03:01.525Z,16.8
2017-07-17T14:05:33.274Z,13.9
2017-07-17T14:08:07.198Z,11.1
2017-07-17T14:10:38.944Z,13.0
2017-07-17T14:13:10.966Z,36.0
2017-07-17T14:15:47.100Z,51.6
2017-07-17T14:18:18.886Z,50.5
2017-07-17T14:20:50.640Z,19.1
2017-07-17T14:23:22.391Z,20.6
2017-07-17T14:25:54.120Z,20.3
2017-07-17T14:28:25.907Z,14.0
2017-07-17T14:30:57.638Z,13.1
2017-07-17T14:33:29.396Z,12.3
2017-07-17T14:36:01.176Z,10.3
2017-07-17T14:38:32.961Z,9.8
2017-07-17T14:41:04.691Z,9.6
2017-07-17T14:43:36.457Z,12.3
2017-07-17T14:46:08.173Z,9.1
2017-07-17T14:48:39.950Z,6.2
2017-07-17T14:51:11.749Z,11.2
2017-07-17T14:53:43.487Z,10.4
2017-07-17T14:56:15.207Z,6.5
2017-07-17T14:58:46.974Z,10.7
2017-07-17T15:01:18.717Z,12.4
2017-07-17T15:03:50.497Z,13.3
2017-07-17T15:06:22.228Z,8.9
2017-07-17T15:08:53.976Z,12.2
2017-07-17T15:11:25.690Z,16.9
2017-07-17T15:13:57.459Z,13.0
2017-07-17T15:16:29.217Z,11.7
2017-07-17T15:19:00.985Z,14.2
2017-07-17T15:21:32.718Z,10.4
2017-07-17T15:24:06.521Z,17.6
2017-07-17T15:26:40.421Z,12.6
2017-07-17T15:29:14.411Z,12.8
2017-07-17T15:31:48.425Z,11.5
2017-07-17T15:34:22.387Z,15.8
2017-07-17T15:36:56.307Z,12.7
2017-07-17T15:39:30.650Z,11.2
2017-07-17T15:42:04.870Z,8.6
2017-07-17T15:44:40.206Z,8.5
2017-07-17T15:47:14.426Z,7.6
2017-07-17T15:49:50.169Z,8.2
2017-07-17T15:52:25.753Z,9.1
2017-07-17T15:55:01.328Z,5.9
2017-07-17T15:57:36.905Z,9.8
2017-07-17T16:00:12.584Z,5.3
2017-07-17T16:02:48.345Z,8.7
2017-07-17T16:05:24.036Z,4.0
2017-07-17T16:07:59.656Z,7.8
2017-07-17T16:10:35.073Z,7.8
2017-07-17T16:13:07.469Z,6.8
2017-07-17T16:15:40.205Z,7.5
2017-07-17T16:18:13.640Z,6.7
2017-07-17T16:20:46.101Z,6.4
2017-07-17T16:23:18.465Z,8.8
2017-07-17T16:25:50.900Z,9.4
2017-07-17T16:28:23.272Z,12.0
2017-07-17T16:30:55.690Z,8.0
2017-07-17T16:33:28.045Z,7.6
2017-07-17T16:36:00.502Z,9.1
2017-07-17T16:38:32.896Z,6.7
2017-07-17T16:41:05.306Z,18.0
2017-07-17T16:43:37.651Z,10.9
2017-07-17T16:46:11.243Z,16.4
2017-07-17T16:48:43.679Z,18.7
2017-07-17T16:51:16.084Z,21.2
2017-07-17T16:53:48.439Z,25.5
2017-07-17T16:56:20.876Z,18.1
2017-07-17T16:58:53.290Z,14.7
2017-07-17T17:01:25.714Z,11.0
2017-07-17T17:03:58.062Z,12.8
2017-07-17T17:06:30.513Z,9.8
2017-07-17T17:09:03.054Z,7.0
2017-07-17T17:11:36.978Z,8.8
2017-07-17T17:14:08.586Z,8.5
2017-07-17T17:16:40.336Z,9.0
2017-07-17T17:19:12.045Z,8.9
2017-07-17T17:21:44.423Z,11.2
2017-07-17T17:24:16.128Z,7.9
2017-07-17T17:26:47.907Z,9.5
2017-07-17T17:29:27.975Z,6.6
2017-07-17T17:32:03.586Z,9.3
2017-07-17T17:34:40.202Z,6.7
2017-07-17T17:37:16.866Z,6.2
2017-07-17T17:39:54.488Z,8.6
2017-07-17T17:42:32.980Z,7.7
2017-07-17T17:45:09.839Z,5.8
2017-07-17T17:47:50.742Z,6.9
2017-07-17T17:50:28.189Z,4.5
2017-07-17T17:53:07.475Z,5.3
2017-07-17T17:55:45.640Z,7.7
2017-07-17T17:58:23.889Z,8.0
2017-07-17T18:01:02.262Z,5.4
2017-07-17T18:03:41.711Z,4.9
2017-07-17T18:06:18.866Z,3.8
2017-07-17T18:08:57.178Z,4.0
2017-07-17T18:11:35.359Z,6.1
2017-07-17T18:14:06.953Z,5.2
2017-07-17T18:16:38.662Z,4.9
2017-07-17T18:19:10.632Z,3.2
2017-07-17T18:21:42.491Z,4.7
2017-07-17T18:24:14.474Z,3.3
2017-07-17T18:26:46.410Z,3.8
2017-07-17T18:29:18.194Z,8.8
2017-07-17T18:31:52.793Z,3.7
2017-07-17T18:34:25.692Z,3.2
2017-07-17T18:36:58.500Z,3.8
2017-07-17T18:39:31.453Z,4.4
2017-07-17T18:42:03.237Z,4.8
2017-07-17T18:44:35.084Z,6.9
2017-07-17T18:47:07.436Z,9.0
2017-07-17T18:49:39.702Z,5.7
2017-07-17T18:52:12.528Z,3.4
2017-07-17T18:54:44.535Z,4.5
2017-07-17T18:57:16.488Z,3.0
2017-07-17T18:59:48.805Z,5.8
2017-07-17T19:02:20.566Z,7.7
2017-07-17T19:04:52.323Z,3.8
2017-07-17T19:07:24.034Z,4.3
2017-07-17T19:09:55.779Z,3.7
2017-07-17T19:12:27.504Z,6.2
2017-07-17T19:14:58.633Z,2.93
2017-07-17T19:14:59.593Z,5.9
2017-07-17T19:17:26.880Z,4.50
2017-07-17T19:17:31.316Z,7.2
2017-07-17T19:19:55.084Z,3.10
2017-07-17T19:20:06.593Z,4.9
2017-07-17T19:22:23.638Z,2.87
2017-07-17T19:22:38.961Z,7.3
2017-07-17T19:24:51.843Z,3.97
2017-07-17T19:25:10.727Z,8.6
2017-07-17T19:27:21.057Z,5.50
2017-07-17T19:27:42.450Z,6.6
2017-07-17T19:29:49.322Z,2.90
2017-07-17T19:30:14.242Z,4.8
2017-07-17T19:32:17.574Z,3.20
2017-07-17T19:32:45.980Z,7.8
2017-07-17T19:34:45.942Z,3.00
2017-07-17T19:35:17.742Z,5.1
2017-07-17T19:37:14.186Z,3.23
2017-07-17T19:37:49.481Z,9.5
2017-07-17T19:39:42.532Z,3.30
2017-07-17T19:40:21.234Z,7.0
2017-07-17T19:42:11.829Z,3.70
2017-07-17T19:42:52.943Z,7.1
2017-07-17T19:44:40.843Z,2.77
2017-07-17T19:45:24.695Z,7.9
2017-07-17T19:47:09.074Z,2.80
2017-07-17T19:47:56.438Z,5.0
2017-07-17T19:49:37.295Z,4.83
2017-07-17T19:50:28.209Z,8.7
2017-07-17T19:52:05.523Z,7.27
2017-07-17T19:52:59.994Z,4.3
2017-07-17T19:54:33.753Z,2.97
2017-07-17T19:55:31.724Z,6.8
2017-07-17T19:57:02.086Z,2.83
2017-07-17T19:58:03.730Z,4.8
2017-07-17T19:59:30.313Z,3.30
2017-07-17T20:00:35.523Z,3.0
2017-07-17T20:01:58.554Z,8.43
2017-07-17T20:03:07.412Z,4.2
2017-07-17T20:04:26.950Z,3.10
2017-07-17T20:05:39.147Z,8.2
2017-07-17T20:06:56.148Z,3.63
2017-07-17T20:08:10.846Z,9.0
2017-07-17T20:09:24.420Z,3.40
2017-07-17T20:10:42.576Z,5.1
2017-07-17T20:11:53.236Z,9.60
2017-07-17T20:13:14.281Z,6.5
2017-07-17T20:14:21.470Z,5.03
2017-07-17T20:15:46.027Z,4.5
2017-07-17T20:16:49.668Z,3.37
2017-07-17T20:18:17.726Z,7.0
2017-07-17T20:19:17.972Z,2.77
2017-07-17T20:20:49.515Z,6.0
2017-07-17T20:21:46.214Z,3.30
2017-07-17T20:23:21.221Z,5.7
2017-07-17T20:24:14.493Z,3.50
2017-07-17T20:25:53.019Z,3.6
2017-07-17T20:26:42.910Z,2.23
2017-07-17T20:28:24.707Z,4.6
2017-07-17T20:29:11.370Z,7.10
2017-07-17T20:30:56.451Z,4.2
2017-07-17T20:31:40.370Z,2.50
2017-07-17T20:33:28.198Z,4.8
2017-07-17T20:34:08.746Z,3.50
2017-07-17T20:35:59.953Z,3.5
2017-07-17T20:36:37.043Z,3.97
2017-07-17T20:38:31.668Z,3.9
2017-07-17T20:39:05.290Z,4.20
2017-07-17T20:41:03.474Z,8.8
2017-07-17T20:41:33.519Z,2.50
2017-07-17T20:43:35.173Z,4.5
2017-07-17T20:44:01.875Z,2.40
2017-07-17T20:46:07.019Z,11.0
2017-07-17T20:46:30.083Z,2.40
2017-07-17T20:48:39.139Z,9.3
2017-07-17T20:48:58.582Z,3.00
2017-07-17T20:51:10.924Z,7.5
2017-07-17T20:51:26.820Z,3.23
2017-07-17T20:53:42.635Z,9.5
2017-07-17T20:53:55.078Z,4.93
2017-07-17T20:56:14.419Z,3.7
2017-07-17T20:56:23.306Z,2.47
2017-07-17T20:58:46.135Z,2.9
2017-07-17T20:58:51.718Z,2.37
2017-07-17T21:01:19.887Z,5.6
2017-07-17T21:01:20.695Z,5.00
2017-07-17T21:03:48.949Z,6.57
2017-07-17T21:03:51.634Z,9.1
2017-07-17T21:06:17.201Z,2.17
2017-07-17T21:06:23.384Z,5.7
2017-07-17T21:08:45.992Z,3.70
2017-07-17T21:08:55.246Z,4.8
2017-07-17T21:11:15.105Z,5.23
2017-07-17T21:11:26.980Z,4.7
2017-07-17T21:13:43.339Z,3.37
2017-07-17T21:13:58.730Z,3.4
2017-07-17T21:16:11.567Z,3.17
2017-07-17T21:16:30.503Z,5.5
2017-07-17T21:18:39.925Z,1.90
2017-07-17T21:19:02.200Z,3.6
2017-07-17T21:21:08.178Z,2.67
2017-07-17T21:21:33.938Z,4.5
2017-07-17T21:23:36.451Z,3.13
2017-07-17T21:24:05.632Z,5.0
2017-07-17T21:26:04.687Z,2.63
2017-07-17T21:26:37.438Z,4.0
2017-07-17T21:28:32.917Z,6.50
2017-07-17T21:29:10.310Z,5.2
2017-07-17T21:31:01.160Z,2.70
2017-07-17T21:31:42.109Z,3.8
2017-07-17T21:33:29.563Z,2.10
2017-07-17T21:34:13.812Z,3.5
2017-07-17T21:35:57.779Z,3.13
2017-07-17T21:36:45.543Z,5.2
2017-07-17T21:38:26.033Z,3.13
2017-07-17T21:39:17.260Z,3.3
2017-07-17T21:40:54.303Z,15.03
2017-07-17T21:41:48.983Z,5.3
2017-07-17T21:43:22.885Z,3.30
2017-07-17T21:44:20.678Z,4.0
2017-07-17T21:45:51.140Z,17.43
2017-07-17T21:46:52.452Z,5.1
2017-07-17T21:48:20.119Z,3.53
2017-07-17T21:49:24.185Z,3.4
2017-07-17T21:50:48.461Z,2.37
2017-07-17T21:51:55.920Z,3.6
2017-07-17T21:53:16.661Z,2.87
2017-07-17T21:54:27.620Z,4.2
2017-07-17T21:55:44.894Z,3.87
2017-07-17T21:56:59.361Z,4.0
2017-07-17T21:58:13.319Z,4.70
2017-07-17T21:59:31.067Z,3.8
2017-07-17T22:00:41.522Z,3.00
2017-07-17T22:02:02.824Z,3.6
2017-07-17T22:03:09.762Z,9.70
2017-07-17T22:04:34.590Z,5.8
2017-07-17T22:05:37.985Z,12.63
2017-07-17T22:07:06.337Z,3.2
2017-07-17T22:08:06.967Z,3.70
2017-07-17T22:09:38.056Z,3.6
2017-07-17T22:10:35.185Z,2.60
2017-07-17T22:12:09.809Z,3.7
2017-07-17T22:13:03.436Z,7.23
2017-07-17T22:14:41.502Z,3.7
2017-07-17T22:15:31.713Z,9.80
2017-07-17T22:17:13.232Z,2.8
2017-07-17T22:17:59.965Z,3.80
2017-07-17T22:19:44.936Z,3.3
2017-07-17T22:20:28.316Z,2.43
2017-07-17T22:22:16.682Z,5.0
2017-07-17T22:22:56.525Z,3.73
2017-07-17T22:24:48.381Z,3.1
2017-07-17T22:25:24.777Z,7.40
2017-07-17T22:27:20.115Z,4.2
2017-07-17T22:27:53.105Z,2.43
2017-07-17T22:29:51.822Z,3.1
2017-07-17T22:30:21.320Z,3.20
2017-07-17T22:32:23.584Z,2.8
2017-07-17T22:32:49.557Z,2.73
2017-07-17T22:34:55.280Z,3.0
2017-07-17T22:35:17.777Z,3.87
2017-07-17T22:37:27.018Z,2.8
2017-07-17T22:37:46.003Z,3.43
2017-07-17T22:39:58.716Z,3.4
2017-07-17T22:40:14.221Z,3.57
2017-07-17T22:42:30.446Z,2.1
2017-07-17T22:42:42.450Z,3.57
2017-07-17T22:45:02.145Z,3.3
2017-07-17T22:45:11.309Z,4.00
2017-07-17T22:47:33.871Z,6.5
2017-07-17T22:47:39.529Z,8.70
2017-07-17T22:50:05.568Z,3.0
2017-07-17T22:50:07.761Z,3.10
2017-07-17T22:52:36.024Z,6.30
2017-07-17T22:52:37.310Z,3.8
2017-07-17T22:55:04.261Z,2.90
2017-07-17T22:55:08.971Z,2.5
2017-07-17T22:57:33.277Z,6.93
2017-07-17T22:57:40.708Z,2.0
2017-07-17T23:00:01.567Z,2.60
2017-07-17T23:00:12.431Z,4.0
2017-07-17T23:02:29.774Z,6.13
2017-07-17T23:02:44.181Z,2.6
2017-07-17T23:04:58.001Z,7.50
2017-07-17T23:05:15.908Z,3.0
2017-07-17T23:07:26.301Z,3.83
2017-07-17T23:07:47.657Z,2.3
2017-07-17T23:09:54.515Z,3.27
2017-07-17T23:10:19.374Z,3.0
2017-07-17T23:12:22.755Z,3.80
2017-07-17T23:12:51.133Z,3.0
2017-07-17T23:14:50.954Z,3.17
2017-07-17T23:15:22.883Z,3.5
2017-07-17T23:17:19.170Z,3.37
2017-07-17T23:17:54.636Z,3.5
2017-07-17T23:19:47.416Z,10.20
2017-07-17T23:20:26.366Z,2.5
2017-07-17T23:22:15.730Z,3.63
2017-07-17T23:22:58.128Z,2.7
2017-07-17T23:24:43.975Z,2.83
2017-07-17T23:25:29.862Z,7.6
2017-07-17T23:27:12.182Z,2.83
2017-07-17T23:28:01.618Z,7.1
2017-07-17T23:29:40.451Z,3.67
2017-07-17T23:30:33.353Z,2.7
2017-07-17T23:32:09.122Z,5.70
2017-07-17T23:33:05.115Z,3.3
2017-07-17T23:34:37.359Z,5.40
2017-07-17T23:35:36.823Z,3.4
2017-07-17T23:37:05.573Z,2.77
2017-07-17T23:38:08.583Z,3.2
2017-07-17T23:39:33.794Z,7.20
2017-07-17T23:40:40.305Z,3.0
2017-07-17T23:42:02.018Z,8.17
2017-07-17T23:43:12.047Z,1.8
2017-07-17T23:44:30.225Z,21.33
2017-07-17T23:45:43.782Z,2.1
2017-07-17T23:46:58.571Z,3.27
2017-07-17T23:48:15.554Z,2.0
2017-07-17T23:49:26.792Z,2.83
2017-07-17T23:50:47.264Z,2.9
2017-07-17T23:51:55.000Z,5.10
2017-07-17T23:53:19.010Z,4.2
2017-07-17T23:54:23.250Z,4.10
2017-07-17T23:55:50.754Z,1.6
2017-07-17T23:56:51.525Z,3.43
2017-07-17T23:58:22.528Z,1.8
2017-07-17T23:59:19.766Z,3.03
